Longview, WA

5:01 PM PST on February 27, 2015 (GMT -0800)
Chehalis-Centralia | Change Station
CLOSE
Current Station
Airport
Location: Chehalis,
Elevation: 177 ft
Nearby Weather Stations

Elev 177 ft 46.68 °N, 122.98 °W | Updated 6 minutes ago

Rain
Rain
50 °F
Feels Like 50 °F
N
12
Wind Variable Wind from NNE

Today
High -- | Low -- °F
--% Chance of Precip.
Yesterday
High -- | Low -- °F
Precip. -- in
6:55 AM 5:55 PM
Waxing Gibbous, 73% visible
Pressure 29.76 in
Visibility 10.0 miles
Clouds Scattered Clouds 1200 ft
Mostly Cloudy 4000 ft
Overcast 6500 ft
Dew Point 46 °F
Humidity 87%
Rainfall 0.00 in
Snow Depth Not available.
UV 0 out of 12
Pollen .60 out of 12
Air Quality Not available.
Flu Activity Not available.
METAR KCLS 280055Z AUTO 03010KT 10SM SCT012 BKN040 OVC065 10/08 A2976 RMK AO2

More Conditions Fewer Conditions

Pressure 29.76 in
Visibility 10.0 miles
Clouds Scattered Clouds 1200 ft
Mostly Cloudy 4000 ft
Overcast 6500 ft
Dew Point 46 °F
Humidity 87%
Rainfall 0.00 in
Snow Depth Not available.
UV 0 out of 12
Pollen .60 out of 12
Air Quality Not available.
Flu Activity Not available.
METAR KCLS 280055Z AUTO 03010KT 10SM SCT012 BKN040 OVC065 10/08 A2976 RMK AO2

More Conditions Fewer Conditions

10-Day Weather Forecast

Almanac

Astronomy

Feb. 27, 2015 Rise Set
Actual Time
Civil Twilight
Nautical Twilight
Astronomical Twilight
Moon
Length of Visible Light
Length of Day
Tomorrow will be .
, % of the Moon is Illuminated

Today's Extremes

State Highs State Lows

Community

WunderPhotos

Upload Photos

1,800,911 photos uploaded!

WunderBlogs® & News

Nearby

Air Quality

  Air Quality AQ Index Pollutant
Not available.

Snow Depth

Station Depth Elevation

Earthquake Activity

City Distance Mag. Time & Date
Minimum magnitude displayed is 2.5.

Coastal Water Temperatures

Place Temperature

Nearby Weather Stations